sensor_id;sensor_type;location;lat;lon;timestamp;P1;durP1;ratioP1;P2;durP2;ratioP2
21837;SDS011;11081;45.946;6.140;2022-07-06T00:00:33;1.15;;;0.63;;
21837;SDS011;11081;45.946;6.140;2022-07-06T00:03:01;1.17;;;0.75;;
21837;SDS011;11081;45.946;6.140;2022-07-06T00:05:29;1.73;;;0.95;;
21837;SDS011;11081;45.946;6.140;2022-07-06T00:07:57;3.08;;;0.80;;
21837;SDS011;11081;45.946;6.140;2022-07-06T00:10:25;2.33;;;0.80;;
21837;SDS011;11081;45.946;6.140;2022-07-06T00:12:54;1.38;;;0.90;;
21837;SDS011;11081;45.946;6.140;2022-07-06T00:15:22;5.32;;;0.95;;
21837;SDS011;11081;45.946;6.140;2022-07-06T00:17:50;0.88;;;0.60;;
21837;SDS011;11081;45.946;6.140;2022-07-06T00:20:19;1.13;;;0.60;;
21837;SDS011;11081;45.946;6.140;2022-07-06T00:22:47;1.45;;;0.50;;
21837;SDS011;11081;45.946;6.140;2022-07-06T00:25:15;1.58;;;0.73;;
21837;SDS011;11081;45.946;6.140;2022-07-06T00:27:43;1.60;;;0.80;;
21837;SDS011;11081;45.946;6.140;2022-07-06T00:30:12;3.97;;;0.63;;
21837;SDS011;11081;45.946;6.140;2022-07-06T00:32:40;1.58;;;0.80;;
21837;SDS011;11081;45.946;6.140;2022-07-06T00:35:08;0.85;;;0.60;;
21837;SDS011;11081;45.946;6.140;2022-07-06T00:37:37;1.67;;;0.70;;
21837;SDS011;11081;45.946;6.140;2022-07-06T00:40:05;1.23;;;0.68;;
21837;SDS011;11081;45.946;6.140;2022-07-06T00:42:41;2.90;;;0.90;;
21837;SDS011;11081;45.946;6.140;2022-07-06T00:45:10;2.22;;;0.77;;
21837;SDS011;11081;45.946;6.140;2022-07-06T00:47:41;1.27;;;0.80;;
21837;SDS011;11081;45.946;6.140;2022-07-06T00:50:10;1.23;;;0.90;;
21837;SDS011;11081;45.946;6.140;2022-07-06T00:52:45;5.10;;;0.90;;
21837;SDS011;11081;45.946;6.140;2022-07-06T00:55:14;4.05;;;1.10;;
21837;SDS011;11081;45.946;6.140;2022-07-06T00:57:45;4.47;;;0.90;;
21837;SDS011;11081;45.946;6.140;2022-07-06T01:00:16;2.95;;;1.00;;
21837;SDS011;11081;45.946;6.140;2022-07-06T01:02:45;1.30;;;0.80;;
21837;SDS011;11081;45.946;6.140;2022-07-06T01:05:14;1.83;;;0.80;;
21837;SDS011;11081;45.946;6.140;2022-07-06T01:07:43;3.58;;;0.70;;
21837;SDS011;11081;45.946;6.140;2022-07-06T01:10:13;1.83;;;0.73;;
21837;SDS011;11081;45.946;6.140;2022-07-06T01:12:44;3.33;;;0.73;;
21837;SDS011;11081;45.946;6.140;2022-07-06T01:15:17;1.48;;;0.77;;
21837;SDS011;11081;45.946;6.140;2022-07-06T01:17:47;0.70;;;0.50;;
21837;SDS011;11081;45.946;6.140;2022-07-06T01:20:19;6.35;;;0.90;;
21837;SDS011;11081;45.946;6.140;2022-07-06T01:22:49;2.28;;;0.88;;
21837;SDS011;11081;45.946;6.140;2022-07-06T01:25:18;3.13;;;1.02;;
21837;SDS011;11081;45.946;6.140;2022-07-06T01:27:46;2.80;;;0.90;;
21837;SDS011;11081;45.946;6.140;2022-07-06T01:30:15;3.40;;;0.70;;
21837;SDS011;11081;45.946;6.140;2022-07-06T01:32:45;3.70;;;1.00;;
21837;SDS011;11081;45.946;6.140;2022-07-06T01:35:14;2.00;;;0.70;;
21837;SDS011;11081;45.946;6.140;2022-07-06T01:37:44;1.92;;;0.70;;
21837;SDS011;11081;45.946;6.140;2022-07-06T01:40:13;0.88;;;0.68;;
21837;SDS011;11081;45.946;6.140;2022-07-06T01:42:41;4.72;;;0.82;;
21837;SDS011;11081;45.946;6.140;2022-07-06T01:45:09;1.90;;;0.70;;
21837;SDS011;11081;45.946;6.140;2022-07-06T01:47:38;3.10;;;0.90;;
21837;SDS011;11081;45.946;6.140;2022-07-06T01:50:07;3.28;;;0.80;;
21837;SDS011;11081;45.946;6.140;2022-07-06T01:52:40;1.80;;;1.08;;
21837;SDS011;11081;45.946;6.140;2022-07-06T01:55:09;2.25;;;0.90;;
21837;SDS011;11081;45.946;6.140;2022-07-06T01:57:38;5.38;;;1.05;;
21837;SDS011;11081;45.946;6.140;2022-07-06T02:00:09;2.17;;;0.90;;
21837;SDS011;11081;45.946;6.140;2022-07-06T02:02:44;3.03;;;0.90;;
21837;SDS011;11081;45.946;6.140;2022-07-06T02:05:12;1.45;;;0.85;;
21837;SDS011;11081;45.946;6.140;2022-07-06T02:07:40;4.72;;;0.90;;
21837;SDS011;11081;45.946;6.140;2022-07-06T02:10:11;2.78;;;0.80;;
21837;SDS011;11081;45.946;6.140;2022-07-06T02:12:40;3.50;;;1.23;;
21837;SDS011;11081;45.946;6.140;2022-07-06T02:15:09;1.75;;;0.90;;
21837;SDS011;11081;45.946;6.140;2022-07-06T02:17:39;3.72;;;0.73;;
21837;SDS011;11081;45.946;6.140;2022-07-06T02:20:07;2.90;;;0.90;;
21837;SDS011;11081;45.946;6.140;2022-07-06T02:22:36;1.98;;;0.68;;
21837;SDS011;11081;45.946;6.140;2022-07-06T02:25:06;4.22;;;1.00;;
21837;SDS011;11081;45.946;6.140;2022-07-06T02:27:36;1.33;;;0.80;;
21837;SDS011;11081;45.946;6.140;2022-07-06T02:30:07;2.00;;;0.98;;
21837;SDS011;11081;45.946;6.140;2022-07-06T02:32:36;4.05;;;1.10;;
21837;SDS011;11081;45.946;6.140;2022-07-06T02:35:04;4.18;;;0.80;;
21837;SDS011;11081;45.946;6.140;2022-07-06T02:37:33;1.20;;;0.80;;
21837;SDS011;11081;45.946;6.140;2022-07-06T02:40:01;4.50;;;0.90;;
21837;SDS011;11081;45.946;6.140;2022-07-06T02:42:32;2.20;;;0.90;;
21837;SDS011;11081;45.946;6.140;2022-07-06T02:45:02;1.60;;;0.80;;
21837;SDS011;11081;45.946;6.140;2022-07-06T02:47:32;1.55;;;0.65;;
21837;SDS011;11081;45.946;6.140;2022-07-06T02:50:02;2.45;;;0.95;;
21837;SDS011;11081;45.946;6.140;2022-07-06T02:52:30;4.20;;;0.82;;
21837;SDS011;11081;45.946;6.140;2022-07-06T02:55:07;2.67;;;0.80;;
21837;SDS011;11081;45.946;6.140;2022-07-06T02:57:35;4.90;;;0.85;;
21837;SDS011;11081;45.946;6.140;2022-07-06T03:00:05;1.67;;;0.90;;
21837;SDS011;11081;45.946;6.140;2022-07-06T03:02:35;3.42;;;0.80;;
21837;SDS011;11081;45.946;6.140;2022-07-06T03:05:04;1.63;;;0.90;;
21837;SDS011;11081;45.946;6.140;2022-07-06T03:07:32;5.07;;;0.93;;
21837;SDS011;11081;45.946;6.140;2022-07-06T03:10:01;1.48;;;0.80;;
21837;SDS011;11081;45.946;6.140;2022-07-06T03:12:30;3.97;;;0.82;;
21837;SDS011;11081;45.946;6.140;2022-07-06T03:14:58;1.42;;;0.70;;
21837;SDS011;11081;45.946;6.140;2022-07-06T03:17:29;1.63;;;0.60;;
21837;SDS011;11081;45.946;6.140;2022-07-06T03:19:57;5.32;;;1.00;;
21837;SDS011;11081;45.946;6.140;2022-07-06T03:22:25;3.83;;;0.70;;
21837;SDS011;11081;45.946;6.140;2022-07-06T03:24:53;2.75;;;0.80;;
21837;SDS011;11081;45.946;6.140;2022-07-06T03:27:21;4.70;;;0.82;;
21837;SDS011;11081;45.946;6.140;2022-07-06T03:29:49;2.80;;;1.00;;
21837;SDS011;11081;45.946;6.140;2022-07-06T03:32:19;3.80;;;0.80;;
21837;SDS011;11081;45.946;6.140;2022-07-06T03:34:49;3.42;;;1.10;;
21837;SDS011;11081;45.946;6.140;2022-07-06T03:37:17;1.17;;;0.80;;
21837;SDS011;11081;45.946;6.140;2022-07-06T03:39:45;1.65;;;0.90;;
21837;SDS011;11081;45.946;6.140;2022-07-06T03:42:14;1.10;;;0.80;;
21837;SDS011;11081;45.946;6.140;2022-07-06T03:44:42;1.95;;;0.93;;
21837;SDS011;11081;45.946;6.140;2022-07-06T03:47:11;1.38;;;0.80;;
21837;SDS011;11081;45.946;6.140;2022-07-06T03:49:39;1.10;;;0.70;;
21837;SDS011;11081;45.946;6.140;2022-07-06T03:52:09;1.60;;;0.85;;
21837;SDS011;11081;45.946;6.140;2022-07-06T03:54:44;2.47;;;1.13;;
21837;SDS011;11081;45.946;6.140;2022-07-06T03:57:17;2.63;;;0.93;;
21837;SDS011;11081;45.946;6.140;2022-07-06T03:59:45;1.45;;;0.80;;
21837;SDS011;11081;45.946;6.140;2022-07-06T04:02:13;1.48;;;0.90;;
21837;SDS011;11081;45.946;6.140;2022-07-06T04:04:42;2.90;;;0.80;;
21837;SDS011;11081;45.946;6.140;2022-07-06T04:07:12;2.92;;;1.08;;
21837;SDS011;11081;45.946;6.140;2022-07-06T04:09:40;2.38;;;0.90;;
21837;SDS011;11081;45.946;6.140;2022-07-06T04:12:08;3.20;;;0.98;;
21837;SDS011;11081;45.946;6.140;2022-07-06T04:14:37;4.63;;;0.90;;
21837;SDS011;11081;45.946;6.140;2022-07-06T04:17:05;3.60;;;1.15;;
21837;SDS011;11081;45.946;6.140;2022-07-06T04:19:48;2.47;;;0.80;;
21837;SDS011;11081;45.946;6.140;2022-07-06T04:22:17;2.30;;;0.88;;
21837;SDS011;11081;45.946;6.140;2022-07-06T04:24:45;2.13;;;1.30;;
21837;SDS011;11081;45.946;6.140;2022-07-06T04:27:14;2.78;;;1.20;;
21837;SDS011;11081;45.946;6.140;2022-07-06T04:29:42;1.20;;;0.80;;
21837;SDS011;11081;45.946;6.140;2022-07-06T04:32:10;1.85;;;0.90;;
21837;SDS011;11081;45.946;6.140;2022-07-06T04:34:39;1.95;;;0.80;;
21837;SDS011;11081;45.946;6.140;2022-07-06T04:37:07;3.85;;;1.02;;
21837;SDS011;11081;45.946;6.140;2022-07-06T04:39:37;4.25;;;0.98;;
21837;SDS011;11081;45.946;6.140;2022-07-06T04:42:05;2.67;;;0.75;;
21837;SDS011;11081;45.946;6.140;2022-07-06T04:44:33;3.53;;;0.80;;
21837;SDS011;11081;45.946;6.140;2022-07-06T04:47:01;2.05;;;0.70;;
21837;SDS011;11081;45.946;6.140;2022-07-06T04:49:30;3.47;;;1.15;;
21837;SDS011;11081;45.946;6.140;2022-07-06T04:51:59;2.50;;;1.20;;
21837;SDS011;11081;45.946;6.140;2022-07-06T04:54:28;3.15;;;0.85;;
21837;SDS011;11081;45.946;6.140;2022-07-06T04:56:57;1.95;;;1.00;;
21837;SDS011;11081;45.946;6.140;2022-07-06T04:59:26;1.88;;;1.02;;
21837;SDS011;11081;45.946;6.140;2022-07-06T05:01:54;3.17;;;1.00;;
21837;SDS011;11081;45.946;6.140;2022-07-06T05:04:22;3.20;;;1.10;;
21837;SDS011;11081;45.946;6.140;2022-07-06T05:06:51;2.67;;;1.17;;
21837;SDS011;11081;45.946;6.140;2022-07-06T05:09:19;3.97;;;1.10;;
21837;SDS011;11081;45.946;6.140;2022-07-06T05:11:48;1.10;;;0.70;;
21837;SDS011;11081;45.946;6.140;2022-07-06T05:14:18;1.92;;;1.00;;
21837;SDS011;11081;45.946;6.140;2022-07-06T05:16:46;4.47;;;0.75;;
21837;SDS011;11081;45.946;6.140;2022-07-06T05:19:15;2.05;;;1.02;;
21837;SDS011;11081;45.946;6.140;2022-07-06T05:21:44;1.90;;;0.80;;
21837;SDS011;11081;45.946;6.140;2022-07-06T05:24:12;1.00;;;0.80;;
21837;SDS011;11081;45.946;6.140;2022-07-06T05:26:42;3.53;;;1.02;;
21837;SDS011;11081;45.946;6.140;2022-07-06T05:29:10;3.08;;;0.90;;
21837;SDS011;11081;45.946;6.140;2022-07-06T05:31:40;4.70;;;1.00;;
21837;SDS011;11081;45.946;6.140;2022-07-06T05:34:08;3.15;;;1.10;;
21837;SDS011;11081;45.946;6.140;2022-07-06T05:36:37;2.50;;;0.98;;
21837;SDS011;11081;45.946;6.140;2022-07-06T05:39:05;5.25;;;1.20;;
21837;SDS011;11081;45.946;6.140;2022-07-06T05:41:33;4.40;;;1.40;;
21837;SDS011;11081;45.946;6.140;2022-07-06T05:44:02;5.57;;;1.10;;
21837;SDS011;11081;45.946;6.140;2022-07-06T05:46:30;5.47;;;1.25;;
21837;SDS011;11081;45.946;6.140;2022-07-06T05:49:00;5.35;;;1.23;;
21837;SDS011;11081;45.946;6.140;2022-07-06T05:51:46;1.92;;;1.05;;
21837;SDS011;11081;45.946;6.140;2022-07-06T05:54:16;5.03;;;1.05;;
21837;SDS011;11081;45.946;6.140;2022-07-06T05:56:45;5.00;;;1.25;;
21837;SDS011;11081;45.946;6.140;2022-07-06T05:59:14;3.42;;;1.00;;
21837;SDS011;11081;45.946;6.140;2022-07-06T06:01:43;5.38;;;1.50;;
21837;SDS011;11081;45.946;6.140;2022-07-06T06:04:17;4.90;;;1.50;;
21837;SDS011;11081;45.946;6.140;2022-07-06T06:06:45;2.65;;;1.20;;
21837;SDS011;11081;45.946;6.140;2022-07-06T06:09:14;5.13;;;1.05;;
21837;SDS011;11081;45.946;6.140;2022-07-06T06:11:42;4.50;;;1.30;;
21837;SDS011;11081;45.946;6.140;2022-07-06T06:14:11;3.50;;;1.00;;
21837;SDS011;11081;45.946;6.140;2022-07-06T06:16:39;6.78;;;1.48;;
21837;SDS011;11081;45.946;6.140;2022-07-06T06:19:07;6.03;;;1.40;;
21837;SDS011;11081;45.946;6.140;2022-07-06T06:21:36;3.65;;;1.20;;
21837;SDS011;11081;45.946;6.140;2022-07-06T06:24:04;3.67;;;1.40;;
21837;SDS011;11081;45.946;6.140;2022-07-06T06:26:33;4.78;;;1.05;;
21837;SDS011;11081;45.946;6.140;2022-07-06T06:29:01;1.92;;;1.10;;
21837;SDS011;11081;45.946;6.140;2022-07-06T06:31:30;4.88;;;1.75;;
21837;SDS011;11081;45.946;6.140;2022-07-06T06:34:04;2.13;;;0.90;;
21837;SDS011;11081;45.946;6.140;2022-07-06T06:36:32;3.45;;;1.27;;
21837;SDS011;11081;45.946;6.140;2022-07-06T06:39:02;5.82;;;1.20;;
21837;SDS011;11081;45.946;6.140;2022-07-06T06:41:30;2.97;;;1.30;;
21837;SDS011;11081;45.946;6.140;2022-07-06T06:43:58;4.80;;;1.60;;
21837;SDS011;11081;45.946;6.140;2022-07-06T06:46:28;1.98;;;1.30;;
21837;SDS011;11081;45.946;6.140;2022-07-06T06:48:56;3.65;;;1.33;;
21837;SDS011;11081;45.946;6.140;2022-07-06T06:51:24;4.78;;;1.20;;
21837;SDS011;11081;45.946;6.140;2022-07-06T06:53:52;2.28;;;1.70;;
21837;SDS011;11081;45.946;6.140;2022-07-06T06:56:22;5.60;;;1.40;;
21837;SDS011;11081;45.946;6.140;2022-07-06T06:58:50;2.72;;;1.38;;
21837;SDS011;11081;45.946;6.140;2022-07-06T07:01:38;2.72;;;1.42;;
21837;SDS011;11081;45.946;6.140;2022-07-06T07:04:06;6.55;;;1.90;;
21837;SDS011;11081;45.946;6.140;2022-07-06T07:06:34;4.95;;;1.70;;
21837;SDS011;11081;45.946;6.140;2022-07-06T07:09:02;2.88;;;1.52;;
21837;SDS011;11081;45.946;6.140;2022-07-06T07:11:32;6.78;;;2.20;;
21837;SDS011;11081;45.946;6.140;2022-07-06T07:14:00;6.60;;;1.65;;
21837;SDS011;11081;45.946;6.140;2022-07-06T07:16:29;4.80;;;1.42;;
21837;SDS011;11081;45.946;6.140;2022-07-06T07:18:57;3.65;;;1.23;;
21837;SDS011;11081;45.946;6.140;2022-07-06T07:21:25;7.55;;;1.58;;
21837;SDS011;11081;45.946;6.140;2022-07-06T07:23:53;3.97;;;1.90;;
21837;SDS011;11081;45.946;6.140;2022-07-06T07:26:21;4.72;;;1.25;;
21837;SDS011;11081;45.946;6.140;2022-07-06T07:28:51;4.70;;;1.52;;
21837;SDS011;11081;45.946;6.140;2022-07-06T07:31:18;1.83;;;1.30;;
21837;SDS011;11081;45.946;6.140;2022-07-06T07:33:47;6.43;;;1.58;;
21837;SDS011;11081;45.946;6.140;2022-07-06T07:36:24;7.82;;;2.00;;
21837;SDS011;11081;45.946;6.140;2022-07-06T07:38:52;4.22;;;1.50;;
21837;SDS011;11081;45.946;6.140;2022-07-06T07:41:20;3.30;;;1.50;;
21837;SDS011;11081;45.946;6.140;2022-07-06T07:43:48;5.13;;;1.73;;
21837;SDS011;11081;45.946;6.140;2022-07-06T07:46:17;3.42;;;1.60;;
21837;SDS011;11081;45.946;6.140;2022-07-06T07:48:45;7.60;;;1.60;;
21837;SDS011;11081;45.946;6.140;2022-07-06T07:51:14;5.00;;;1.60;;
21837;SDS011;11081;45.946;6.140;2022-07-06T07:53:43;8.07;;;1.92;;
21837;SDS011;11081;45.946;6.140;2022-07-06T07:56:11;8.73;;;2.05;;
21837;SDS011;11081;45.946;6.140;2022-07-06T07:58:39;5.72;;;1.40;;
21837;SDS011;11081;45.946;6.140;2022-07-06T08:01:07;6.22;;;1.60;;
21837;SDS011;11081;45.946;6.140;2022-07-06T08:03:36;6.35;;;1.67;;
21837;SDS011;11081;45.946;6.140;2022-07-06T08:06:04;3.97;;;1.48;;
21837;SDS011;11081;45.946;6.140;2022-07-06T08:08:32;7.10;;;1.83;;
21837;SDS011;11081;45.946;6.140;2022-07-06T08:11:00;4.40;;;1.90;;
21837;SDS011;11081;45.946;6.140;2022-07-06T08:13:44;1.98;;;1.35;;
21837;SDS011;11081;45.946;6.140;2022-07-06T08:16:12;6.85;;;1.60;;
21837;SDS011;11081;45.946;6.140;2022-07-06T08:18:41;10.23;;;1.80;;
21837;SDS011;11081;45.946;6.140;2022-07-06T08:21:09;10.40;;;1.52;;
21837;SDS011;11081;45.946;6.140;2022-07-06T08:23:53;5.70;;;2.08;;
21837;SDS011;11081;45.946;6.140;2022-07-06T08:26:22;5.30;;;1.42;;
21837;SDS011;11081;45.946;6.140;2022-07-06T08:28:50;3.40;;;1.48;;
21837;SDS011;11081;45.946;6.140;2022-07-06T08:31:19;4.40;;;1.17;;
21837;SDS011;11081;45.946;6.140;2022-07-06T08:34:08;2.67;;;0.85;;
21837;SDS011;11081;45.946;6.140;2022-07-06T08:36:37;3.95;;;1.10;;
21837;SDS011;11081;45.946;6.140;2022-07-06T08:39:05;3.53;;;1.00;;
21837;SDS011;11081;45.946;6.140;2022-07-06T08:41:34;6.30;;;1.10;;
21837;SDS011;11081;45.946;6.140;2022-07-06T08:44:03;4.10;;;1.15;;
21837;SDS011;11081;45.946;6.140;2022-07-06T08:46:33;3.67;;;0.98;;
21837;SDS011;11081;45.946;6.140;2022-07-06T08:49:05;3.80;;;1.10;;
21837;SDS011;11081;45.946;6.140;2022-07-06T08:51:35;2.40;;;0.93;;
21837;SDS011;11081;45.946;6.140;2022-07-06T08:54:04;2.38;;;1.20;;
21837;SDS011;11081;45.946;6.140;2022-07-06T08:56:33;3.83;;;0.95;;
21837;SDS011;11081;45.946;6.140;2022-07-06T08:59:01;2.47;;;1.17;;
21837;SDS011;11081;45.946;6.140;2022-07-06T09:01:29;6.18;;;1.20;;
21837;SDS011;11081;45.946;6.140;2022-07-06T09:03:57;3.30;;;1.10;;
21837;SDS011;11081;45.946;6.140;2022-07-06T09:06:28;2.22;;;1.20;;
21837;SDS011;11081;45.946;6.140;2022-07-06T09:08:58;1.92;;;1.10;;
21837;SDS011;11081;45.946;6.140;2022-07-06T09:11:29;6.35;;;1.08;;
21837;SDS011;11081;45.946;6.140;2022-07-06T09:13:57;5.13;;;0.95;;
21837;SDS011;11081;45.946;6.140;2022-07-06T09:16:26;2.78;;;1.00;;
21837;SDS011;11081;45.946;6.140;2022-07-06T09:19:05;1.83;;;0.90;;
21837;SDS011;11081;45.946;6.140;2022-07-06T09:21:33;2.60;;;1.00;;
21837;SDS011;11081;45.946;6.140;2022-07-06T09:24:07;3.47;;;1.10;;
21837;SDS011;11081;45.946;6.140;2022-07-06T09:26:37;3.83;;;1.38;;
21837;SDS011;11081;45.946;6.140;2022-07-06T09:29:05;1.83;;;0.95;;
21837;SDS011;11081;45.946;6.140;2022-07-06T09:31:34;1.98;;;0.85;;
21837;SDS011;11081;45.946;6.140;2022-07-06T09:34:03;2.95;;;1.00;;
21837;SDS011;11081;45.946;6.140;2022-07-06T09:36:40;3.85;;;1.25;;
21837;SDS011;11081;45.946;6.140;2022-07-06T09:39:20;3.25;;;1.10;;
21837;SDS011;11081;45.946;6.140;2022-07-06T09:41:50;2.50;;;1.10;;
21837;SDS011;11081;45.946;6.140;2022-07-06T09:44:23;1.77;;;0.80;;
21837;SDS011;11081;45.946;6.140;2022-07-06T09:46:52;4.35;;;1.30;;
21837;SDS011;11081;45.946;6.140;2022-07-06T09:49:23;5.18;;;1.08;;
21837;SDS011;11081;45.946;6.140;2022-07-06T09:51:53;2.72;;;1.10;;
21837;SDS011;11081;45.946;6.140;2022-07-06T09:54:24;1.58;;;1.00;;
21837;SDS011;11081;45.946;6.140;2022-07-06T09:56:53;1.90;;;1.17;;
21837;SDS011;11081;45.946;6.140;2022-07-06T09:59:22;2.88;;;0.90;;
21837;SDS011;11081;45.946;6.140;2022-07-06T10:01:51;4.15;;;1.10;;
21837;SDS011;11081;45.946;6.140;2022-07-06T10:04:21;2.67;;;1.00;;
21837;SDS011;11081;45.946;6.140;2022-07-06T10:06:50;4.05;;;1.20;;
21837;SDS011;11081;45.946;6.140;2022-07-06T10:09:20;5.53;;;1.15;;
21837;SDS011;11081;45.946;6.140;2022-07-06T10:11:53;2.83;;;1.02;;
21837;SDS011;11081;45.946;6.140;2022-07-06T10:14:23;3.85;;;0.90;;
21837;SDS011;11081;45.946;6.140;2022-07-06T10:16:53;1.70;;;1.13;;
21837;SDS011;11081;45.946;6.140;2022-07-06T10:19:23;4.40;;;1.10;;
21837;SDS011;11081;45.946;6.140;2022-07-06T10:21:51;2.55;;;0.90;;
21837;SDS011;11081;45.946;6.140;2022-07-06T10:24:20;1.95;;;0.95;;
21837;SDS011;11081;45.946;6.140;2022-07-06T10:26:48;1.17;;;0.75;;
21837;SDS011;11081;45.946;6.140;2022-07-06T10:29:18;1.67;;;0.80;;
21837;SDS011;11081;45.946;6.140;2022-07-06T10:31:47;3.70;;;0.95;;
21837;SDS011;11081;45.946;6.140;2022-07-06T10:34:18;3.38;;;1.10;;
21837;SDS011;11081;45.946;6.140;2022-07-06T10:36:48;3.22;;;0.98;;
21837;SDS011;11081;45.946;6.140;2022-07-06T10:39:31;3.13;;;1.13;;
21837;SDS011;11081;45.946;6.140;2022-07-06T10:45:14;3.53;;;0.98;;
21837;SDS011;11081;45.946;6.140;2022-07-06T10:47:46;2.08;;;1.05;;
21837;SDS011;11081;45.946;6.140;2022-07-06T10:50:14;3.42;;;1.17;;
21837;SDS011;11081;45.946;6.140;2022-07-06T10:52:49;2.17;;;0.90;;
21837;SDS011;11081;45.946;6.140;2022-07-06T10:55:28;1.92;;;1.00;;
21837;SDS011;11081;45.946;6.140;2022-07-06T10:58:00;4.05;;;0.80;;
21837;SDS011;11081;45.946;6.140;2022-07-06T11:03:34;3.22;;;0.88;;
21837;SDS011;11081;45.946;6.140;2022-07-06T11:06:07;1.20;;;0.68;;
21837;SDS011;11081;45.946;6.140;2022-07-06T11:08:50;2.63;;;0.80;;
21837;SDS011;11081;45.946;6.140;2022-07-06T11:11:20;2.03;;;1.00;;
21837;SDS011;11081;45.946;6.140;2022-07-06T11:13:54;3.08;;;1.00;;
21837;SDS011;11081;45.946;6.140;2022-07-06T11:16:25;1.05;;;0.70;;
21837;SDS011;11081;45.946;6.140;2022-07-06T11:19:05;2.47;;;0.98;;
21837;SDS011;11081;45.946;6.140;2022-07-06T11:21:37;1.95;;;0.90;;
21837;SDS011;11081;45.946;6.140;2022-07-06T11:24:11;3.17;;;0.80;;
21837;SDS011;11081;45.946;6.140;2022-07-06T11:26:41;3.28;;;1.00;;
21837;SDS011;11081;45.946;6.140;2022-07-06T11:29:12;1.85;;;0.93;;
21837;SDS011;11081;45.946;6.140;2022-07-06T11:31:42;1.00;;;0.88;;
21837;SDS011;11081;45.946;6.140;2022-07-06T11:34:12;2.13;;;0.95;;
21837;SDS011;11081;45.946;6.140;2022-07-06T11:36:44;1.48;;;0.82;;
21837;SDS011;11081;45.946;6.140;2022-07-06T11:39:13;1.77;;;0.68;;
21837;SDS011;11081;45.946;6.140;2022-07-06T11:41:42;5.00;;;0.95;;
21837;SDS011;11081;45.946;6.140;2022-07-06T11:44:16;3.58;;;0.90;;
21837;SDS011;11081;45.946;6.140;2022-07-06T11:46:46;2.08;;;0.85;;
21837;SDS011;11081;45.946;6.140;2022-07-06T11:49:14;3.47;;;1.00;;
21837;SDS011;11081;45.946;6.140;2022-07-06T11:51:44;3.72;;;0.70;;
21837;SDS011;11081;45.946;6.140;2022-07-06T11:54:14;2.58;;;0.80;;
21837;SDS011;11081;45.946;6.140;2022-07-06T11:56:47;1.58;;;0.73;;
21837;SDS011;11081;45.946;6.140;2022-07-06T11:59:16;1.98;;;1.00;;
21837;SDS011;11081;45.946;6.140;2022-07-06T12:01:45;2.72;;;0.80;;
21837;SDS011;11081;45.946;6.140;2022-07-06T12:04:13;1.65;;;1.00;;
21837;SDS011;11081;45.946;6.140;2022-07-06T12:06:43;0.60;;;0.60;;
21837;SDS011;11081;45.946;6.140;2022-07-06T12:09:11;2.90;;;0.88;;
21837;SDS011;11081;45.946;6.140;2022-07-06T12:11:40;6.13;;;0.88;;
21837;SDS011;11081;45.946;6.140;2022-07-06T12:14:13;3.55;;;0.80;;
21837;SDS011;11081;45.946;6.140;2022-07-06T12:16:42;4.75;;;1.00;;
21837;SDS011;11081;45.946;6.140;2022-07-06T12:19:12;3.10;;;0.90;;
21837;SDS011;11081;45.946;6.140;2022-07-06T12:21:43;4.80;;;1.08;;
21837;SDS011;11081;45.946;6.140;2022-07-06T12:24:19;3.22;;;0.98;;
21837;SDS011;11081;45.946;6.140;2022-07-06T12:26:50;1.10;;;0.60;;
21837;SDS011;11081;45.946;6.140;2022-07-06T12:29:19;1.48;;;0.60;;
21837;SDS011;11081;45.946;6.140;2022-07-06T12:31:49;1.52;;;1.00;;
21837;SDS011;11081;45.946;6.140;2022-07-06T12:34:20;0.82;;;0.80;;
21837;SDS011;11081;45.946;6.140;2022-07-06T12:36:50;3.10;;;0.80;;
21837;SDS011;11081;45.946;6.140;2022-07-06T12:39:20;3.58;;;0.80;;
21837;SDS011;11081;45.946;6.140;2022-07-06T12:41:50;2.30;;;0.70;;
21837;SDS011;11081;45.946;6.140;2022-07-06T12:44:20;4.97;;;0.88;;
21837;SDS011;11081;45.946;6.140;2022-07-06T12:46:49;1.20;;;0.82;;
21837;SDS011;11081;45.946;6.140;2022-07-06T12:49:19;1.10;;;1.00;;
21837;SDS011;11081;45.946;6.140;2022-07-06T12:51:53;1.67;;;0.80;;
21837;SDS011;11081;45.946;6.140;2022-07-06T12:54:23;5.68;;;0.80;;
21837;SDS011;11081;45.946;6.140;2022-07-06T12:56:59;2.80;;;0.90;;
21837;SDS011;11081;45.946;6.140;2022-07-06T12:59:29;1.98;;;0.75;;
21837;SDS011;11081;45.946;6.140;2022-07-06T13:01:58;1.83;;;1.00;;
21837;SDS011;11081;45.946;6.140;2022-07-06T13:04:28;1.27;;;0.77;;
21837;SDS011;11081;45.946;6.140;2022-07-06T13:06:58;2.15;;;1.15;;
21837;SDS011;11081;45.946;6.140;2022-07-06T13:09:33;1.85;;;0.80;;
21837;SDS011;11081;45.946;6.140;2022-07-06T13:12:02;1.95;;;1.15;;
21837;SDS011;11081;45.946;6.140;2022-07-06T13:14:30;1.88;;;0.90;;
21837;SDS011;11081;45.946;6.140;2022-07-06T13:16:58;1.00;;;0.80;;
21837;SDS011;11081;45.946;6.140;2022-07-06T13:19:29;1.42;;;0.82;;
21837;SDS011;11081;45.946;6.140;2022-07-06T13:21:57;2.15;;;0.82;;
21837;SDS011;11081;45.946;6.140;2022-07-06T13:24:25;2.65;;;0.98;;
21837;SDS011;11081;45.946;6.140;2022-07-06T13:26:54;2.78;;;1.02;;
21837;SDS011;11081;45.946;6.140;2022-07-06T13:29:23;2.08;;;0.90;;
21837;SDS011;11081;45.946;6.140;2022-07-06T13:31:52;1.23;;;0.88;;
21837;SDS011;11081;45.946;6.140;2022-07-06T13:34:20;1.13;;;0.80;;
21837;SDS011;11081;45.946;6.140;2022-07-06T13:36:50;3.35;;;0.82;;
21837;SDS011;11081;45.946;6.140;2022-07-06T13:39:18;0.70;;;0.70;;
21837;SDS011;11081;45.946;6.140;2022-07-06T13:41:47;2.88;;;0.70;;
21837;SDS011;11081;45.946;6.140;2022-07-06T13:44:15;3.25;;;0.93;;
21837;SDS011;11081;45.946;6.140;2022-07-06T13:46:43;2.15;;;0.80;;
21837;SDS011;11081;45.946;6.140;2022-07-06T13:49:11;3.40;;;0.82;;
21837;SDS011;11081;45.946;6.140;2022-07-06T13:51:39;1.33;;;0.88;;
21837;SDS011;11081;45.946;6.140;2022-07-06T13:54:09;2.92;;;1.23;;
21837;SDS011;11081;45.946;6.140;2022-07-06T13:56:38;2.65;;;0.90;;
21837;SDS011;11081;45.946;6.140;2022-07-06T13:59:06;6.05;;;1.10;;
21837;SDS011;11081;45.946;6.140;2022-07-06T14:01:35;2.92;;;0.70;;
21837;SDS011;11081;45.946;6.140;2022-07-06T14:04:03;1.33;;;1.08;;
21837;SDS011;11081;45.946;6.140;2022-07-06T14:06:31;1.77;;;1.00;;
21837;SDS011;11081;45.946;6.140;2022-07-06T14:08:59;1.98;;;1.10;;
21837;SDS011;11081;45.946;6.140;2022-07-06T14:11:29;3.20;;;1.02;;
21837;SDS011;11081;45.946;6.140;2022-07-06T14:13:57;2.15;;;1.10;;
21837;SDS011;11081;45.946;6.140;2022-07-06T14:16:26;1.77;;;0.88;;
21837;SDS011;11081;45.946;6.140;2022-07-06T14:18:54;1.20;;;1.00;;
21837;SDS011;11081;45.946;6.140;2022-07-06T14:21:22;3.55;;;0.80;;
21837;SDS011;11081;45.946;6.140;2022-07-06T14:23:50;3.65;;;1.20;;
21837;SDS011;11081;45.946;6.140;2022-07-06T14:26:18;5.38;;;1.17;;
21837;SDS011;11081;45.946;6.140;2022-07-06T14:28:47;2.30;;;1.10;;
21837;SDS011;11081;45.946;6.140;2022-07-06T14:31:15;3.90;;;0.90;;
21837;SDS011;11081;45.946;6.140;2022-07-06T14:33:47;1.05;;;0.85;;
21837;SDS011;11081;45.946;6.140;2022-07-06T14:36:16;2.88;;;1.00;;
21837;SDS011;11081;45.946;6.140;2022-07-06T14:38:44;2.65;;;1.00;;
21837;SDS011;11081;45.946;6.140;2022-07-06T14:41:12;5.40;;;0.90;;
21837;SDS011;11081;45.946;6.140;2022-07-06T14:43:41;3.85;;;1.10;;
21837;SDS011;11081;45.946;6.140;2022-07-06T14:46:10;2.47;;;0.85;;
21837;SDS011;11081;45.946;6.140;2022-07-06T14:48:38;6.18;;;1.25;;
21837;SDS011;11081;45.946;6.140;2022-07-06T14:51:06;1.70;;;0.90;;
21837;SDS011;11081;45.946;6.140;2022-07-06T14:53:34;3.08;;;0.90;;
21837;SDS011;11081;45.946;6.140;2022-07-06T14:56:02;4.57;;;1.20;;
21837;SDS011;11081;45.946;6.140;2022-07-06T14:58:31;3.28;;;0.88;;
21837;SDS011;11081;45.946;6.140;2022-07-06T15:00:59;5.55;;;1.25;;
21837;SDS011;11081;45.946;6.140;2022-07-06T15:03:30;3.65;;;1.30;;
21837;SDS011;11081;45.946;6.140;2022-07-06T15:05:58;2.78;;;1.02;;
21837;SDS011;11081;45.946;6.140;2022-07-06T15:08:26;4.80;;;0.90;;